Kiona, Washington
Current Conditions -  °F | °C
As of 2:00 PM on Wednesday 28 Jan 2015 (Local Time) from KPSC Reporting Station
Haze Haze  
Wind Chill: 34°   Ceiling: 1200
Heat Index: 40°   Visibility: 10mi
Dew Point: 37°   Wind: 8mph
Humidity: 89%   Direction: 360°N
Pressure: 30.45"   Gusts: NA
Location:  46.2458°N, 119.519°W
Report Text: KPSC 282200Z 36007KT 10SM BR OVC012 04/03 A3045 RMK AO2 T00440028
Loading
Personal Weather Stations






























Interactive Weather Map New forecast layout! Learn more

10-Day Weather Forecast

Advertisements
Track Severe Weather on mobile